createdAt,value
2019-04-04T00:02:35.889Z,5.80
2019-04-04T00:12:41.235Z,3.65
2019-04-04T00:22:46.500Z,4.28
2019-04-04T00:32:52.779Z,2.67
2019-04-04T00:42:59.053Z,2.67
2019-04-04T00:53:04.826Z,3.45
2019-04-04T01:03:10.360Z,2.87
2019-04-04T01:13:15.720Z,4.78
2019-04-04T01:23:21.244Z,4.40
2019-04-04T01:33:26.851Z,5.05
2019-04-04T01:43:32.300Z,3.77
2019-04-04T01:53:37.614Z,2.20
2019-04-04T02:03:43.520Z,1.67
2019-04-04T02:13:49.487Z,2.25
2019-04-04T02:23:54.885Z,1.85
2019-04-04T02:34:05.031Z,2.02
2019-04-04T02:44:08.080Z,2.65
2019-04-04T02:54:13.657Z,3.02
2019-04-04T03:04:19.136Z,1.52
2019-04-04T03:14:24.841Z,1.62
2019-04-04T03:24:30.792Z,2.00
2019-04-04T03:34:36.239Z,2.20
2019-04-04T03:44:41.713Z,2.55
2019-04-04T03:54:47.529Z,3.17
2019-04-04T04:04:53.147Z,4.28
2019-04-04T04:14:58.478Z,3.70
2019-04-04T04:25:04.473Z,2.65
2019-04-04T04:35:10.513Z,2.70
2019-04-04T04:45:16.327Z,3.80
2019-04-04T04:55:21.846Z,4.05
2019-04-04T05:05:27.333Z,4.03
2019-04-04T05:15:33.218Z,3.98
2019-04-04T05:25:51.770Z,3.33
2019-04-04T05:35:45.630Z,3.17
2019-04-04T05:45:50.948Z,3.80
2019-04-04T05:55:56.446Z,4.33
2019-04-04T06:06:02.009Z,4.22
2019-04-04T06:16:07.404Z,6.15
2019-04-04T06:26:12.664Z,4.10
2019-04-04T06:36:18.350Z,3.45
2019-04-04T06:46:23.728Z,4.37
2019-04-04T06:56:31.822Z,5.97
2019-04-04T07:06:36.043Z,6.92
2019-04-04T07:16:41.406Z,12.73
2019-04-04T07:26:46.752Z,11.43
2019-04-04T07:36:52.071Z,14.85
2019-04-04T07:46:57.747Z,32.10
2019-04-04T07:57:03.491Z,45.03
2019-04-04T08:07:08.818Z,51.33
2019-04-04T08:17:14.102Z,49.90
2019-04-04T08:27:19.426Z,59.25
2019-04-04T08:37:25.148Z,49.03
2019-04-04T08:47:34.919Z,26.85
2019-04-04T08:57:40.485Z,21.23
2019-04-04T09:07:45.754Z,20.48
2019-04-04T09:17:51.601Z,19.98
2019-04-04T09:27:56.874Z,21.62
2019-04-04T09:38:02.305Z,20.65
2019-04-04T09:48:07.633Z,21.68
2019-04-04T09:58:13.217Z,21.02
2019-04-04T10:08:18.790Z,24.52
2019-04-04T10:18:24.330Z,23.83
2019-04-04T10:28:29.814Z,26.87
2019-04-04T10:38:35.192Z,36.35
2019-04-04T10:48:40.573Z,49.70
2019-04-04T10:58:46.322Z,46.37
2019-04-04T11:08:51.698Z,43.83
2019-04-04T11:18:57.058Z,50.70
2019-04-04T11:29:02.600Z,41.90
2019-04-04T11:39:08.249Z,44.65
2019-04-04T11:49:13.592Z,38.02
2019-04-04T11:59:19.163Z,31.95
2019-04-04T12:09:24.438Z,31.10
2019-04-04T12:19:29.722Z,31.97
2019-04-04T12:29:34.982Z,24.77
2019-04-04T12:39:40.537Z,23.25
2019-04-04T12:49:45.819Z,21.95
2019-04-04T12:59:51.306Z,26.50
2019-04-04T13:09:56.621Z,30.10
2019-04-04T13:20:01.924Z,27.75
2019-04-04T13:30:09.307Z,27.80
2019-04-04T13:40:14.646Z,27.00
2019-04-04T13:50:20.706Z,26.68
2019-04-04T14:00:26.190Z,29.15
2019-04-04T14:10:31.698Z,26.27
2019-04-04T14:20:36.998Z,26.65
2019-04-04T14:30:42.286Z,25.02
2019-04-04T14:40:47.565Z,26.35
2019-04-04T14:50:52.851Z,27.15
2019-04-04T15:00:59.068Z,27.85
2019-04-04T15:11:04.407Z,28.60
2019-04-04T15:21:10.038Z,28.62
2019-04-04T15:31:15.347Z,27.85
2019-04-04T15:41:20.752Z,29.82
2019-04-04T15:51:26.127Z,35.15
2019-04-04T16:01:31.406Z,31.80
2019-04-04T16:11:48.505Z,35.17
2019-04-04T16:21:43.807Z,66.00
2019-04-04T16:31:49.115Z,41.90
2019-04-04T16:42:02.048Z,42.48
2019-04-04T16:52:01.957Z,43.15
2019-04-04T17:02:09.363Z,41.50
2019-04-04T17:12:15.470Z,45.05
2019-04-04T17:22:20.846Z,43.15
2019-04-04T17:32:26.149Z,45.98
2019-04-04T17:42:33.116Z,51.68
2019-04-04T17:52:39.148Z,46.48
2019-04-04T18:02:44.567Z,42.93
2019-04-04T18:12:49.855Z,42.08
2019-04-04T18:22:55.130Z,40.33
2019-04-04T18:33:00.688Z,42.08
2019-04-04T18:43:06.185Z,47.00
2019-04-04T18:53:11.525Z,46.08
2019-04-04T19:03:17.414Z,44.90
2019-04-04T19:13:23.289Z,44.88
2019-04-04T19:23:29.112Z,40.25
2019-04-04T19:33:34.674Z,43.58
2019-04-04T19:43:40.511Z,41.10
2019-04-04T19:53:46.273Z,43.70
2019-04-04T20:03:51.599Z,43.60
2019-04-04T20:13:56.916Z,43.80
2019-04-04T20:24:02.224Z,39.67
2019-04-04T20:34:07.970Z,43.48
2019-04-04T20:44:13.402Z,43.80
2019-04-04T20:54:18.967Z,38.53
2019-04-04T21:04:24.988Z,40.00
2019-04-04T21:14:30.333Z,41.83
2019-04-04T21:24:35.607Z,47.05
2019-04-04T21:34:40.926Z,47.45
2019-04-04T21:44:46.664Z,47.83
2019-04-04T21:54:52.036Z,49.45
2019-04-04T22:04:58.160Z,47.98
2019-04-04T22:15:03.535Z,49.63
2019-04-04T22:25:08.898Z,50.45
2019-04-04T22:35:14.587Z,51.40
2019-04-04T22:45:19.930Z,52.83
2019-04-04T22:55:26.710Z,57.83
2019-04-04T23:05:32.513Z,51.37
2019-04-04T23:15:38.030Z,48.80
2019-04-04T23:25:43.890Z,47.85
2019-04-04T23:35:49.414Z,51.45
2019-04-04T23:45:55.004Z,51.60
2019-04-04T23:56:00.535Z,49.67
